createdAt,value
2022-08-24T00:00:28.918Z,80.27
2022-08-24T00:05:30.700Z,80.44
2022-08-24T00:10:32.215Z,81.16
2022-08-24T00:15:33.868Z,81.71
2022-08-24T00:20:39.232Z,81.86
2022-08-24T00:25:44.233Z,82.36
2022-08-24T00:30:45.868Z,82.24
2022-08-24T00:35:47.415Z,82.01
2022-08-24T00:40:49.977Z,82.51
2022-08-24T00:46:20.675Z,82.32
2022-08-24T00:51:30.321Z,81.37
2022-08-24T00:56:36.161Z,81.99
2022-08-24T01:01:38.603Z,81.07
2022-08-24T01:06:40.232Z,80.78
2022-08-24T01:11:42.104Z,80.33
2022-08-24T01:17:02.426Z,80.76
2022-08-24T01:22:09.659Z,79.97
2022-08-24T01:27:12.158Z,79.77
2022-08-24T01:32:13.860Z,79.03
2022-08-24T01:37:15.972Z,77.61
2022-08-24T01:42:18.035Z,78.92
2022-08-24T01:47:19.582Z,79.75
2022-08-24T01:52:24.419Z,80.49
2022-08-24T01:57:27.192Z,80.81
2022-08-24T02:02:31.695Z,81.69
2022-08-24T02:07:33.299Z,82.20
2022-08-24T02:12:40.015Z,81.66
2022-08-24T02:17:41.518Z,82.45
2022-08-24T02:22:43.023Z,83.87
2022-08-24T02:27:45.017Z,85.35
2022-08-24T02:32:47.137Z,85.02
2022-08-24T02:37:49.469Z,85.61
2022-08-24T02:42:51.649Z,85.98
2022-08-24T02:47:53.780Z,86.28
2022-08-24T02:52:55.428Z,86.36
2022-08-24T02:57:58.418Z,87.10
2022-08-24T03:03:00.052Z,87.29
2022-08-24T03:08:02.043Z,87.70
2022-08-24T03:13:05.803Z,88.38
2022-08-24T03:18:07.464Z,88.32
2022-08-24T03:23:08.985Z,88.17
2022-08-24T03:28:11.961Z,89.13
2022-08-24T03:33:13.844Z,89.66
2022-08-24T03:38:15.911Z,90.44
2022-08-24T03:43:36.186Z,90.86
2022-08-24T03:48:39.895Z,91.41
2022-08-24T03:53:42.903Z,91.93
2022-08-24T03:58:47.443Z,92.84
2022-08-24T04:03:49.846Z,93.35
2022-08-24T04:08:52.383Z,94.44
2022-08-24T04:13:56.969Z,94.74
2022-08-24T04:18:59.195Z,94.84
2022-08-24T04:24:01.757Z,95.69
2022-08-24T04:29:04.354Z,96.40
2022-08-24T04:34:11.278Z,96.69
2022-08-24T04:39:13.582Z,97.03
2022-08-24T04:44:15.171Z,98.04
2022-08-24T04:49:17.106Z,97.92
2022-08-24T04:54:19.062Z,98.44
2022-08-24T04:59:20.618Z,98.63
2022-08-24T05:04:22.165Z,98.20
2022-08-24T05:09:23.681Z,98.16
2022-08-24T05:14:28.833Z,98.46
2022-08-24T05:19:31.759Z,98.77
2022-08-24T05:24:33.607Z,98.98
2022-08-24T05:29:35.438Z,97.74
2022-08-24T05:34:37.150Z,98.13
2022-08-24T05:39:41.706Z,98.11
2022-08-24T05:44:43.359Z,97.60
2022-08-24T05:49:45.866Z,97.05
2022-08-24T05:54:55.633Z,97.32
2022-08-24T05:59:57.242Z,96.71
2022-08-24T06:04:58.781Z,96.03
2022-08-24T06:10:14.698Z,96.32
2022-08-24T06:15:22.390Z,96.24
2022-08-24T06:20:24.178Z,92.93
2022-08-24T06:25:44.418Z,86.10
2022-08-24T06:30:47.039Z,87.38
2022-08-24T06:35:48.691Z,90.19
2022-08-24T06:40:50.529Z,90.50
2022-08-24T06:45:55.401Z,90.40
2022-08-24T06:50:57.950Z,90.90
2022-08-24T06:56:02.245Z,91.60
2022-08-24T07:01:20.542Z,91.77
2022-08-24T07:06:24.847Z,90.82
2022-08-24T07:11:26.598Z,89.62
2022-08-24T07:16:28.658Z,89.51
2022-08-24T07:21:32.260Z,88.79
2022-08-24T07:26:33.822Z,87.09
2022-08-24T07:31:40.588Z,84.25
2022-08-24T07:36:44.558Z,83.70
2022-08-24T07:42:09.061Z,81.28
2022-08-24T07:47:34.414Z,79.73
2022-08-24T07:52:32.211Z,79.31
2022-08-24T07:57:33.859Z,78.89
2022-08-24T08:02:36.951Z,76.57
2022-08-24T08:07:38.614Z,74.47
2022-08-24T08:12:40.958Z,71.57
2022-08-24T08:17:42.641Z,70.93
2022-08-24T08:23:02.784Z,69.10
2022-08-24T08:28:18.564Z,65.87
2022-08-24T08:33:28.506Z,62.66
2022-08-24T08:38:30.867Z,62.02
2022-08-24T08:43:55.711Z,60.70
2022-08-24T08:49:18.333Z,59.60
2022-08-24T08:54:45.867Z,61.35
2022-08-24T09:00:22.176Z,59.98
2022-08-24T09:05:35.899Z,58.45
2022-08-24T09:10:49.898Z,56.19
2022-08-24T09:16:12.224Z,57.57
2022-08-24T09:21:32.475Z,57.20
2022-08-24T09:26:41.019Z,57.37
2022-08-24T09:32:18.281Z,54.31
2022-08-24T09:37:51.805Z,51.94
2022-08-24T09:43:02.683Z,49.64
2022-08-24T09:48:26.304Z,49.07
2022-08-24T09:53:45.002Z,45.98
2022-08-24T09:58:50.469Z,41.23
2022-08-24T10:04:28.463Z,35.97
2022-08-24T10:09:56.441Z,31.81
2022-08-24T10:15:19.371Z,30.05
2022-08-24T10:20:23.917Z,30.05
2022-08-24T10:25:54.358Z,27.77
2022-08-24T10:31:02.421Z,26.73
2022-08-24T10:36:42.854Z,26.44
2022-08-24T10:42:32.371Z,26.28
2022-08-24T10:47:47.932Z,25.69
2022-08-24T10:53:04.823Z,25.75
2022-08-24T10:58:30.666Z,24.36
2022-08-24T11:03:32.984Z,24.90
2022-08-24T11:08:34.576Z,24.94
2022-08-24T11:13:38.541Z,24.58
2022-08-24T11:18:46.359Z,23.77
2022-08-24T11:23:48.149Z,24.27
2022-08-24T11:28:53.885Z,24.44
2022-08-24T11:34:08.135Z,25.07
2022-08-24T11:39:17.740Z,25.29
2022-08-24T11:44:46.664Z,25.01
2022-08-24T11:49:58.791Z,26.21
2022-08-24T11:55:24.591Z,26.29
2022-08-24T12:00:36.942Z,26.40
2022-08-24T12:06:11.683Z,26.27
2022-08-24T12:11:29.846Z,25.05
2022-08-24T12:16:47.942Z,26.66
2022-08-24T12:21:54.688Z,26.83
2022-08-24T12:27:07.468Z,26.81
2022-08-24T12:32:15.208Z,26.17
2022-08-24T12:37:46.798Z,27.99
2022-08-24T12:43:06.751Z,26.10
2022-08-24T12:48:21.502Z,26.89
2022-08-24T12:53:52.247Z,26.16
2022-08-24T12:59:06.186Z,27.39
2022-08-24T13:04:29.731Z,27.38
2022-08-24T13:09:39.238Z,27.80
2022-08-24T13:14:49.835Z,27.11
2022-08-24T13:20:17.457Z,28.07
2022-08-24T13:25:24.980Z,28.18
2022-08-24T13:30:31.272Z,28.73
2022-08-24T13:35:40.735Z,28.00
2022-08-24T13:40:51.490Z,29.99
2022-08-24T13:46:01.579Z,30.19
2022-08-24T13:51:40.931Z,30.38
2022-08-24T13:56:57.798Z,31.35
2022-08-24T14:02:01.006Z,31.67
2022-08-24T14:07:18.663Z,31.91
2022-08-24T14:12:35.166Z,32.74
2022-08-24T14:18:02.524Z,31.35
2022-08-24T14:23:19.243Z,32.44
2022-08-24T14:28:40.470Z,32.44
2022-08-24T14:33:54.850Z,32.14
2022-08-24T14:39:08.944Z,32.94
2022-08-24T14:44:20.709Z,33.41
2022-08-24T14:49:35.787Z,33.91
2022-08-24T14:55:00.075Z,34.56
2022-08-24T15:00:17.428Z,35.60
2022-08-24T15:05:27.858Z,36.23
2022-08-24T15:10:37.594Z,36.13
2022-08-24T15:15:55.642Z,36.16
2022-08-24T15:21:05.142Z,36.48
2022-08-24T15:26:25.764Z,37.06
2022-08-24T15:31:29.324Z,37.19
2022-08-24T15:36:33.916Z,37.85
2022-08-24T15:41:41.928Z,37.61
2022-08-24T15:46:54.472Z,37.32
2022-08-24T15:52:00.602Z,38.47
2022-08-24T15:57:26.088Z,37.93
2022-08-24T16:02:35.703Z,38.29
2022-08-24T16:08:05.693Z,39.70
2022-08-24T16:13:17.409Z,40.18
2022-08-24T16:18:20.658Z,41.13
2022-08-24T16:23:31.413Z,42.13
2022-08-24T16:28:36.294Z,42.58
2022-08-24T16:33:46.126Z,43.52
2022-08-24T16:38:50.385Z,44.02
2022-08-24T16:43:52.119Z,44.87
2022-08-24T16:48:54.807Z,45.23
2022-08-24T16:53:56.402Z,45.51
2022-08-24T16:58:59.070Z,45.89
2022-08-24T17:04:00.701Z,46.88
2022-08-24T17:09:02.350Z,47.49
2022-08-24T17:14:04.561Z,48.08
2022-08-24T17:19:11.532Z,48.95
2022-08-24T17:24:23.431Z,49.66
2022-08-24T17:29:25.926Z,50.37
2022-08-24T17:34:30.550Z,50.95
2022-08-24T17:39:32.143Z,52.10
2022-08-24T17:44:35.600Z,53.11
2022-08-24T17:49:37.462Z,54.52
2022-08-24T17:54:38.948Z,54.89
2022-08-24T17:59:40.572Z,55.34
2022-08-24T18:04:43.911Z,58.05
2022-08-24T18:09:48.331Z,57.76
2022-08-24T18:14:50.715Z,59.19
2022-08-24T18:19:53.099Z,60.44
2022-08-24T18:24:54.902Z,60.71
2022-08-24T18:30:01.297Z,61.98
2022-08-24T18:35:05.276Z,62.96
2022-08-24T18:40:07.809Z,63.87
2022-08-24T18:45:11.099Z,65.06
2022-08-24T18:50:13.713Z,65.48
2022-08-24T18:55:16.969Z,67.31
2022-08-24T19:00:19.213Z,68.10
2022-08-24T19:05:24.556Z,69.28
2022-08-24T19:10:34.805Z,70.91
2022-08-24T19:15:40.143Z,71.98
2022-08-24T19:20:48.487Z,72.44
2022-08-24T19:25:51.412Z,73.68
2022-08-24T19:30:56.590Z,74.59
2022-08-24T19:35:58.371Z,75.34
2022-08-24T19:41:02.599Z,76.37
2022-08-24T19:46:13.456Z,76.46
2022-08-24T19:51:15.179Z,77.72
2022-08-24T19:56:16.743Z,78.46
2022-08-24T20:01:34.817Z,77.54
2022-08-24T20:06:37.305Z,78.00
2022-08-24T20:11:39.505Z,78.80
2022-08-24T20:16:44.750Z,78.84
2022-08-24T20:21:46.516Z,79.45
2022-08-24T20:26:48.133Z,79.64
2022-08-24T20:31:50.747Z,79.93
2022-08-24T20:36:53.568Z,80.50
2022-08-24T20:41:55.392Z,81.03
2022-08-24T20:46:57.216Z,80.94
2022-08-24T20:52:00.325Z,81.82
2022-08-24T20:57:02.711Z,83.05
2022-08-24T21:02:04.744Z,83.96
2022-08-24T21:07:10.391Z,85.68
2022-08-24T21:12:11.979Z,86.58
2022-08-24T21:17:13.596Z,87.18
2022-08-24T21:22:15.548Z,88.65
2022-08-24T21:27:18.593Z,89.29
2022-08-24T21:32:39.093Z,89.90
2022-08-24T21:37:40.610Z,91.38
2022-08-24T21:42:42.295Z,92.41
2022-08-24T21:47:44.765Z,93.12
2022-08-24T21:52:46.523Z,94.29
2022-08-24T21:57:53.624Z,94.55
2022-08-24T22:02:55.198Z,95.64
2022-08-24T22:07:57.071Z,96.09
2022-08-24T22:13:03.306Z,97.23
2022-08-24T22:18:05.907Z,98.26
2022-08-24T22:23:07.490Z,99.10
2022-08-24T22:28:09.054Z,99.89
2022-08-24T22:33:10.621Z,99.78
2022-08-24T22:38:13.010Z,100.00
2022-08-24T22:43:14.598Z,100.00
2022-08-24T22:48:16.099Z,100.00
2022-08-24T22:53:17.592Z,100.00
2022-08-24T22:58:19.144Z,100.00
2022-08-24T23:03:20.691Z,100.00
2022-08-24T23:08:22.205Z,100.00
2022-08-24T23:13:28.438Z,100.00
2022-08-24T23:18:49.122Z,100.00
2022-08-24T23:23:50.880Z,100.00
2022-08-24T23:28:52.429Z,100.00
2022-08-24T23:33:54.151Z,100.00
2022-08-24T23:38:58.171Z,100.00
2022-08-24T23:44:02.209Z,100.00
2022-08-24T23:49:04.980Z,100.00
2022-08-24T23:54:07.972Z,100.00
2022-08-24T23:59:16.775Z,100.00
